sensor_id;sensor_type;location;lat;lon;timestamp;temperature;humidity
69281;SHT31;56392;51.082;17.080;2023-02-27T00:04:32;2.09;72.70
69281;SHT31;56392;51.082;17.080;2023-02-27T00:09:55;2.11;72.57
69281;SHT31;56392;51.082;17.080;2023-02-27T00:15:19;2.09;72.94
69281;SHT31;56392;51.082;17.080;2023-02-27T00:20:44;2.06;72.74
69281;SHT31;56392;51.082;17.080;2023-02-27T00:26:09;2.05;72.75
69281;SHT31;56392;51.082;17.080;2023-02-27T00:31:32;2.05;73.20
69281;SHT31;56392;51.082;17.080;2023-02-27T00:36:57;2.03;72.63
69281;SHT31;56392;51.082;17.080;2023-02-27T00:42:21;2.02;73.44
69281;SHT31;56392;51.082;17.080;2023-02-27T00:47:44;1.97;72.65
69281;SHT31;56392;51.082;17.080;2023-02-27T00:53:08;2.03;72.98
69281;SHT31;56392;51.082;17.080;2023-02-27T00:58:32;2.02;73.32
69281;SHT31;56392;51.082;17.080;2023-02-27T01:03:55;1.97;72.46
69281;SHT31;56392;51.082;17.080;2023-02-27T01:09:20;2.02;72.78
69281;SHT31;56392;51.082;17.080;2023-02-27T01:14:44;2.03;72.38
69281;SHT31;56392;51.082;17.080;2023-02-27T01:20:09;1.94;72.67
69281;SHT31;56392;51.082;17.080;2023-02-27T01:25:34;1.95;72.84
69281;SHT31;56392;51.082;17.080;2023-02-27T01:30:57;1.92;72.43
69281;SHT31;56392;51.082;17.080;2023-02-27T01:36:20;1.95;73.36
69281;SHT31;56392;51.082;17.080;2023-02-27T01:41:45;1.92;73.12
69281;SHT31;56392;51.082;17.080;2023-02-27T01:47:09;1.92;72.73
69281;SHT31;56392;51.082;17.080;2023-02-27T01:52:36;1.91;72.80
69281;SHT31;56392;51.082;17.080;2023-02-27T01:58:02;1.89;72.57
69281;SHT31;56392;51.082;17.080;2023-02-27T02:03:30;1.82;72.17
69281;SHT31;56392;51.082;17.080;2023-02-27T02:08:57;1.84;72.42
69281;SHT31;56392;51.082;17.080;2023-02-27T02:14:23;1.88;72.72
69281;SHT31;56392;51.082;17.080;2023-02-27T02:19:58;1.88;72.04
69281;SHT31;56392;51.082;17.080;2023-02-27T02:25:44;1.81;71.99
69281;SHT31;56392;51.082;17.080;2023-02-27T02:43:23;1.74;72.00
69281;SHT31;56392;51.082;17.080;2023-02-27T02:48:52;1.71;72.03
69281;SHT31;56392;51.082;17.080;2023-02-27T02:54:24;1.78;71.73
69281;SHT31;56392;51.082;17.080;2023-02-27T02:59:54;1.78;71.54
69281;SHT31;56392;51.082;17.080;2023-02-27T03:05:23;1.78;71.80
69281;SHT31;56392;51.082;17.080;2023-02-27T03:10:50;1.75;71.71
69281;SHT31;56392;51.082;17.080;2023-02-27T03:16:20;1.71;72.00
69281;SHT31;56392;51.082;17.080;2023-02-27T03:21:49;1.70;71.66
69281;SHT31;56392;51.082;17.080;2023-02-27T03:27:15;1.70;71.89
69281;SHT31;56392;51.082;17.080;2023-02-27T03:32:45;1.65;71.74
69281;SHT31;56392;51.082;17.080;2023-02-27T03:38:17;1.71;72.56
69281;SHT31;56392;51.082;17.080;2023-02-27T03:43:50;1.72;72.68
69281;SHT31;56392;51.082;17.080;2023-02-27T03:49:19;1.65;72.06
69281;SHT31;56392;51.082;17.080;2023-02-27T03:54:46;1.64;72.10
69281;SHT31;56392;51.082;17.080;2023-02-27T04:00:14;1.68;72.06
69281;SHT31;56392;51.082;17.080;2023-02-27T04:05:40;1.68;72.57
69281;SHT31;56392;51.082;17.080;2023-02-27T04:11:31;1.64;72.67
69281;SHT31;56392;51.082;17.080;2023-02-27T04:17:05;1.67;73.01
69281;SHT31;56392;51.082;17.080;2023-02-27T04:22:38;1.67;72.58
69281;SHT31;56392;51.082;17.080;2023-02-27T04:28:08;1.65;73.02
69281;SHT31;56392;51.082;17.080;2023-02-27T04:33:41;1.63;72.69
69281;SHT31;56392;51.082;17.080;2023-02-27T04:39:07;1.61;73.06
69281;SHT31;56392;51.082;17.080;2023-02-27T04:44:33;1.65;73.41
69281;SHT31;56392;51.082;17.080;2023-02-27T04:50:02;1.63;73.62
69281;SHT31;56392;51.082;17.080;2023-02-27T04:55:30;1.57;73.20
69281;SHT31;56392;51.082;17.080;2023-02-27T05:00:59;1.61;73.24
69281;SHT31;56392;51.082;17.080;2023-02-27T05:06:26;1.68;73.38
69281;SHT31;56392;51.082;17.080;2023-02-27T05:11:55;1.63;73.38
69281;SHT31;56392;51.082;17.080;2023-02-27T05:17:24;1.61;73.33
69281;SHT31;56392;51.082;17.080;2023-02-27T05:22:53;1.63;73.39
69281;SHT31;56392;51.082;17.080;2023-02-27T05:28:22;1.57;73.73
69281;SHT31;56392;51.082;17.080;2023-02-27T05:33:49;1.54;74.24
69281;SHT31;56392;51.082;17.080;2023-02-27T05:39:14;1.58;73.28
69281;SHT31;56392;51.082;17.080;2023-02-27T05:44:46;1.58;73.72
69281;SHT31;56392;51.082;17.080;2023-02-27T05:50:19;1.55;74.08
69281;SHT31;56392;51.082;17.080;2023-02-27T05:55:45;1.54;73.77
69281;SHT31;56392;51.082;17.080;2023-02-27T06:01:11;1.53;73.92
69281;SHT31;56392;51.082;17.080;2023-02-27T06:06:35;1.54;73.77
69281;SHT31;56392;51.082;17.080;2023-02-27T06:12:00;1.54;73.76
69281;SHT31;56392;51.082;17.080;2023-02-27T06:17:24;1.53;74.39
69281;SHT31;56392;51.082;17.080;2023-02-27T06:22:47;1.54;74.04
69281;SHT31;56392;51.082;17.080;2023-02-27T06:28:11;1.55;74.30
69281;SHT31;56392;51.082;17.080;2023-02-27T06:33:36;1.58;74.27
69281;SHT31;56392;51.082;17.080;2023-02-27T06:38:59;1.60;74.45
69281;SHT31;56392;51.082;17.080;2023-02-27T06:44:22;1.61;74.01
69281;SHT31;56392;51.082;17.080;2023-02-27T06:49:46;1.63;73.85
69281;SHT31;56392;51.082;17.080;2023-02-27T06:55:10;1.65;73.63
69281;SHT31;56392;51.082;17.080;2023-02-27T07:00:33;1.63;74.90
69281;SHT31;56392;51.082;17.080;2023-02-27T07:05:58;1.64;74.31
69281;SHT31;56392;51.082;17.080;2023-02-27T07:11:23;1.63;74.40
69281;SHT31;56392;51.082;17.080;2023-02-27T07:16:46;1.67;74.21
69281;SHT31;56392;51.082;17.080;2023-02-27T07:22:16;1.70;74.12
69281;SHT31;56392;51.082;17.080;2023-02-27T07:27:39;1.68;73.78
69281;SHT31;56392;51.082;17.080;2023-02-27T07:33:04;1.71;74.51
69281;SHT31;56392;51.082;17.080;2023-02-27T07:38:29;1.71;74.51
69281;SHT31;56392;51.082;17.080;2023-02-27T07:43:53;1.74;74.51
69281;SHT31;56392;51.082;17.080;2023-02-27T07:49:16;1.79;75.33
69281;SHT31;56392;51.082;17.080;2023-02-27T07:54:41;1.79;74.35
69281;SHT31;56392;51.082;17.080;2023-02-27T08:00:05;1.86;75.17
69281;SHT31;56392;51.082;17.080;2023-02-27T08:05:30;1.88;74.55
69281;SHT31;56392;51.082;17.080;2023-02-27T08:10:54;1.97;74.42
69281;SHT31;56392;51.082;17.080;2023-02-27T08:16:17;2.03;74.38
69281;SHT31;56392;51.082;17.080;2023-02-27T08:21:42;1.99;74.04
69281;SHT31;56392;51.082;17.080;2023-02-27T08:27:07;2.16;75.03
69281;SHT31;56392;51.082;17.080;2023-02-27T08:32:30;2.19;74.44
69281;SHT31;56392;51.082;17.080;2023-02-27T08:37:54;2.22;74.11
69281;SHT31;56392;51.082;17.080;2023-02-27T08:43:18;2.26;73.66
69281;SHT31;56392;51.082;17.080;2023-02-27T08:48:41;2.33;73.67
69281;SHT31;56392;51.082;17.080;2023-02-27T08:54:05;2.42;73.99
69281;SHT31;56392;51.082;17.080;2023-02-27T08:59:29;2.47;73.14
69281;SHT31;56392;51.082;17.080;2023-02-27T09:04:52;2.54;72.67
69281;SHT31;56392;51.082;17.080;2023-02-27T09:10:16;2.61;73.02
69281;SHT31;56392;51.082;17.080;2023-02-27T09:15:41;2.66;71.92
69281;SHT31;56392;51.082;17.080;2023-02-27T09:21:04;2.77;71.79
69281;SHT31;56392;51.082;17.080;2023-02-27T09:26:27;2.91;71.40
69281;SHT31;56392;51.082;17.080;2023-02-27T09:31:52;3.01;71.75
69281;SHT31;56392;51.082;17.080;2023-02-27T09:37:15;3.15;70.27
69281;SHT31;56392;51.082;17.080;2023-02-27T09:42:41;3.18;69.33
69281;SHT31;56392;51.082;17.080;2023-02-27T09:48:23;3.32;70.82
69281;SHT31;56392;51.082;17.080;2023-02-27T09:53:51;3.39;71.35
69281;SHT31;56392;51.082;17.080;2023-02-27T09:59:24;3.45;71.73
69281;SHT31;56392;51.082;17.080;2023-02-27T10:04:56;3.49;70.24
69281;SHT31;56392;51.082;17.080;2023-02-27T10:10:29;3.48;70.41
69281;SHT31;56392;51.082;17.080;2023-02-27T10:15:53;3.52;68.05
69281;SHT31;56392;51.082;17.080;2023-02-27T10:21:21;3.51;68.07
69281;SHT31;56392;51.082;17.080;2023-02-27T10:26:46;3.58;68.40
69281;SHT31;56392;51.082;17.080;2023-02-27T10:32:13;3.56;67.68
69281;SHT31;56392;51.082;17.080;2023-02-27T10:37:45;3.65;67.93
69281;SHT31;56392;51.082;17.080;2023-02-27T10:43:13;3.76;68.26
69281;SHT31;56392;51.082;17.080;2023-02-27T10:48:36;3.70;67.36
69281;SHT31;56392;51.082;17.080;2023-02-27T10:54:22;3.72;67.89
69281;SHT31;56392;51.082;17.080;2023-02-27T10:59:50;3.82;66.24
69281;SHT31;56392;51.082;17.080;2023-02-27T11:05:19;3.83;63.58
69281;SHT31;56392;51.082;17.080;2023-02-27T11:10:56;3.91;63.70
69281;SHT31;56392;51.082;17.080;2023-02-27T11:16:19;3.98;64.05
69281;SHT31;56392;51.082;17.080;2023-02-27T11:21:58;4.11;63.86
69281;SHT31;56392;51.082;17.080;2023-02-27T11:27:25;4.16;61.85
69281;SHT31;56392;51.082;17.080;2023-02-27T11:32:50;4.27;62.23
69281;SHT31;56392;51.082;17.080;2023-02-27T11:38:16;4.27;62.39
69281;SHT31;56392;51.082;17.080;2023-02-27T11:43:48;4.28;61.82
69281;SHT31;56392;51.082;17.080;2023-02-27T11:49:21;4.20;58.16
69281;SHT31;56392;51.082;17.080;2023-02-27T11:54:52;4.18;58.14
69281;SHT31;56392;51.082;17.080;2023-02-27T12:00:20;4.18;58.40
69281;SHT31;56392;51.082;17.080;2023-02-27T12:05:49;4.24;60.79
69281;SHT31;56392;51.082;17.080;2023-02-27T12:11:20;4.16;61.49
69281;SHT31;56392;51.082;17.080;2023-02-27T12:16:52;3.98;61.71
69281;SHT31;56392;51.082;17.080;2023-02-27T12:22:20;4.03;62.45
69281;SHT31;56392;51.082;17.080;2023-02-27T12:27:58;3.96;63.53
69281;SHT31;56392;51.082;17.080;2023-02-27T12:33:33;3.87;64.09
69281;SHT31;56392;51.082;17.080;2023-02-27T12:38:57;3.90;65.46
69281;SHT31;56392;51.082;17.080;2023-02-27T12:44:33;3.97;66.32
69281;SHT31;56392;51.082;17.080;2023-02-27T12:50:09;4.04;66.77
69281;SHT31;56392;51.082;17.080;2023-02-27T12:55:38;3.96;65.85
69281;SHT31;56392;51.082;17.080;2023-02-27T13:01:14;3.76;63.80
69281;SHT31;56392;51.082;17.080;2023-02-27T13:06:50;3.76;63.82
69281;SHT31;56392;51.082;17.080;2023-02-27T13:12:22;3.79;62.67
69281;SHT31;56392;51.082;17.080;2023-02-27T13:17:48;3.79;62.57
69281;SHT31;56392;51.082;17.080;2023-02-27T13:23:20;3.79;62.12
69281;SHT31;56392;51.082;17.080;2023-02-27T13:28:44;3.85;62.19
69281;SHT31;56392;51.082;17.080;2023-02-27T13:34:14;3.80;61.26
69281;SHT31;56392;51.082;17.080;2023-02-27T13:39:52;3.70;61.15
69281;SHT31;56392;51.082;17.080;2023-02-27T13:45:52;3.73;61.76
69281;SHT31;56392;51.082;17.080;2023-02-27T13:57:22;3.63;61.51
69281;SHT31;56392;51.082;17.080;2023-02-27T14:02:50;3.62;62.19
69281;SHT31;56392;51.082;17.080;2023-02-27T14:08:20;3.62;63.15
69281;SHT31;56392;51.082;17.080;2023-02-27T14:14:05;3.63;63.76
69281;SHT31;56392;51.082;17.080;2023-02-27T14:19:49;3.66;64.44
69281;SHT31;56392;51.082;17.080;2023-02-27T14:25:24;3.67;64.76
69281;SHT31;56392;51.082;17.080;2023-02-27T14:30:54;3.60;64.77
69281;SHT31;56392;51.082;17.080;2023-02-27T14:36:19;3.62;65.25
69281;SHT31;56392;51.082;17.080;2023-02-27T14:41:47;3.56;65.21
69281;SHT31;56392;51.082;17.080;2023-02-27T14:47:17;3.58;65.71
69281;SHT31;56392;51.082;17.080;2023-02-27T14:52:42;3.52;65.14
69281;SHT31;56392;51.082;17.080;2023-02-27T14:58:14;3.55;65.94
69281;SHT31;56392;51.082;17.080;2023-02-27T15:03:40;3.49;66.52
69281;SHT31;56392;51.082;17.080;2023-02-27T15:09:11;3.40;66.84
69281;SHT31;56392;51.082;17.080;2023-02-27T15:14:39;3.39;66.31
69281;SHT31;56392;51.082;17.080;2023-02-27T15:20:23;3.42;66.36
69281;SHT31;56392;51.082;17.080;2023-02-27T15:25:48;3.39;64.91
69281;SHT31;56392;51.082;17.080;2023-02-27T15:31:17;3.46;65.20
69281;SHT31;56392;51.082;17.080;2023-02-27T15:36:46;3.39;65.60
69281;SHT31;56392;51.082;17.080;2023-02-27T15:42:09;3.39;64.50
69281;SHT31;56392;51.082;17.080;2023-02-27T15:47:34;3.40;64.45
69281;SHT31;56392;51.082;17.080;2023-02-27T15:53:03;3.45;64.68
69281;SHT31;56392;51.082;17.080;2023-02-27T15:58:28;3.34;64.07
69281;SHT31;56392;51.082;17.080;2023-02-27T16:03:56;3.19;59.67
69281;SHT31;56392;51.082;17.080;2023-02-27T16:09:24;3.26;61.41
69281;SHT31;56392;51.082;17.080;2023-02-27T16:14:50;3.19;60.63
69281;SHT31;56392;51.082;17.080;2023-02-27T16:20:36;3.22;60.70
69281;SHT31;56392;51.082;17.080;2023-02-27T16:26:25;3.18;61.45
69281;SHT31;56392;51.082;17.080;2023-02-27T16:31:52;3.14;61.07
69281;SHT31;56392;51.082;17.080;2023-02-27T16:37:20;3.05;62.29
69281;SHT31;56392;51.082;17.080;2023-02-27T16:42:47;3.05;62.30
69281;SHT31;56392;51.082;17.080;2023-02-27T16:48:10;3.07;62.88
69281;SHT31;56392;51.082;17.080;2023-02-27T16:53:33;3.07;63.30
69281;SHT31;56392;51.082;17.080;2023-02-27T16:59:00;2.94;63.47
69281;SHT31;56392;51.082;17.080;2023-02-27T17:04:24;3.03;64.83
69281;SHT31;56392;51.082;17.080;2023-02-27T17:09:48;2.95;64.66
69281;SHT31;56392;51.082;17.080;2023-02-27T17:15:13;3.03;64.88
69281;SHT31;56392;51.082;17.080;2023-02-27T17:20:36;3.04;64.98
69281;SHT31;56392;51.082;17.080;2023-02-27T17:25:59;3.05;65.03
69281;SHT31;56392;51.082;17.080;2023-02-27T17:31:25;3.04;65.57
69281;SHT31;56392;51.082;17.080;2023-02-27T17:36:48;2.98;65.24
69281;SHT31;56392;51.082;17.080;2023-02-27T17:42:12;2.97;65.27
69281;SHT31;56392;51.082;17.080;2023-02-27T17:47:40;2.93;65.34
69281;SHT31;56392;51.082;17.080;2023-02-27T17:53:04;2.94;65.84
69281;SHT31;56392;51.082;17.080;2023-02-27T17:58:27;2.90;65.60
69281;SHT31;56392;51.082;17.080;2023-02-27T18:03:52;2.84;65.74
69281;SHT31;56392;51.082;17.080;2023-02-27T18:09:16;2.80;66.76
69281;SHT31;56392;51.082;17.080;2023-02-27T18:14:40;2.68;65.31
69281;SHT31;56392;51.082;17.080;2023-02-27T18:20:06;2.64;67.22
69281;SHT31;56392;51.082;17.080;2023-02-27T18:25:29;2.60;66.65
69281;SHT31;56392;51.082;17.080;2023-02-27T18:30:53;2.57;65.43
69281;SHT31;56392;51.082;17.080;2023-02-27T18:36:18;2.56;65.07
69281;SHT31;56392;51.082;17.080;2023-02-27T18:41:41;2.49;64.96
69281;SHT31;56392;51.082;17.080;2023-02-27T18:47:04;2.40;63.69
69281;SHT31;56392;51.082;17.080;2023-02-27T18:52:29;2.35;63.63
69281;SHT31;56392;51.082;17.080;2023-02-27T18:57:52;2.37;63.79
69281;SHT31;56392;51.082;17.080;2023-02-27T19:03:16;2.32;65.16
69281;SHT31;56392;51.082;17.080;2023-02-27T19:08:40;2.16;67.10
69281;SHT31;56392;51.082;17.080;2023-02-27T19:14:06;1.98;68.12
69281;SHT31;56392;51.082;17.080;2023-02-27T19:19:30;1.70;70.50
69281;SHT31;56392;51.082;17.080;2023-02-27T19:24:54;1.68;69.22
69281;SHT31;56392;51.082;17.080;2023-02-27T19:30:18;1.57;69.23
69281;SHT31;56392;51.082;17.080;2023-02-27T19:35:41;1.43;69.13
69281;SHT31;56392;51.082;17.080;2023-02-27T19:41:07;1.29;69.58
69281;SHT31;56392;51.082;17.080;2023-02-27T19:46:32;1.24;69.79
69281;SHT31;56392;51.082;17.080;2023-02-27T19:51:56;1.15;70.20
69281;SHT31;56392;51.082;17.080;2023-02-27T19:57:21;1.03;70.25
69281;SHT31;56392;51.082;17.080;2023-02-27T20:02:45;1.02;69.98
69281;SHT31;56392;51.082;17.080;2023-02-27T20:08:08;0.91;70.20
69281;SHT31;56392;51.082;17.080;2023-02-27T20:13:33;0.86;71.13
69281;SHT31;56392;51.082;17.080;2023-02-27T20:18:56;0.83;70.84
69281;SHT31;56392;51.082;17.080;2023-02-27T20:24:22;0.78;70.70
69281;SHT31;56392;51.082;17.080;2023-02-27T20:29:52;0.68;70.55
69281;SHT31;56392;51.082;17.080;2023-02-27T20:35:15;0.65;70.94
69281;SHT31;56392;51.082;17.080;2023-02-27T20:40:39;0.61;71.13
69281;SHT31;56392;51.082;17.080;2023-02-27T20:46:05;0.59;71.83
69281;SHT31;56392;51.082;17.080;2023-02-27T20:51:30;0.59;71.98
69281;SHT31;56392;51.082;17.080;2023-02-27T20:56:55;0.54;71.50
69281;SHT31;56392;51.082;17.080;2023-02-27T21:02:20;0.58;71.75
69281;SHT31;56392;51.082;17.080;2023-02-27T21:07:43;0.59;71.63
69281;SHT31;56392;51.082;17.080;2023-02-27T21:13:08;0.62;71.83
69281;SHT31;56392;51.082;17.080;2023-02-27T21:18:33;0.66;71.88
69281;SHT31;56392;51.082;17.080;2023-02-27T21:23:57;0.68;72.18
69281;SHT31;56392;51.082;17.080;2023-02-27T21:29:20;0.72;72.04
69281;SHT31;56392;51.082;17.080;2023-02-27T21:34:45;0.75;72.97
69281;SHT31;56392;51.082;17.080;2023-02-27T21:40:10;0.79;73.35
69281;SHT31;56392;51.082;17.080;2023-02-27T21:45:35;0.88;72.88
69281;SHT31;56392;51.082;17.080;2023-02-27T21:51:01;0.91;73.27
69281;SHT31;56392;51.082;17.080;2023-02-27T21:56:25;0.96;73.56
69281;SHT31;56392;51.082;17.080;2023-02-27T22:01:49;0.96;73.07
69281;SHT31;56392;51.082;17.080;2023-02-27T22:07:13;0.99;72.36
69281;SHT31;56392;51.082;17.080;2023-02-27T22:12:36;0.92;72.98
69281;SHT31;56392;51.082;17.080;2023-02-27T22:17:59;1.02;71.32
69281;SHT31;56392;51.082;17.080;2023-02-27T22:23:24;1.03;72.81
69281;SHT31;56392;51.082;17.080;2023-02-27T22:28:47;1.06;72.25
69281;SHT31;56392;51.082;17.080;2023-02-27T22:34:12;1.07;72.74
69281;SHT31;56392;51.082;17.080;2023-02-27T22:39:40;1.17;72.47
69281;SHT31;56392;51.082;17.080;2023-02-27T22:45:04;1.17;72.47
69281;SHT31;56392;51.082;17.080;2023-02-27T22:50:27;1.24;70.71
69281;SHT31;56392;51.082;17.080;2023-02-27T22:55:53;1.30;70.61
69281;SHT31;56392;51.082;17.080;2023-02-27T23:01:18;1.29;71.46
69281;SHT31;56392;51.082;17.080;2023-02-27T23:06:44;1.34;73.00
69281;SHT31;56392;51.082;17.080;2023-02-27T23:12:08;1.39;71.43
69281;SHT31;56392;51.082;17.080;2023-02-27T23:17:31;1.43;70.93
69281;SHT31;56392;51.082;17.080;2023-02-27T23:22:54;1.47;70.41
69281;SHT31;56392;51.082;17.080;2023-02-27T23:28:19;1.50;71.22
69281;SHT31;56392;51.082;17.080;2023-02-27T23:33:42;1.51;71.60
69281;SHT31;56392;51.082;17.080;2023-02-27T23:39:06;1.43;71.99
69281;SHT31;56392;51.082;17.080;2023-02-27T23:44:31;1.50;70.97
69281;SHT31;56392;51.082;17.080;2023-02-27T23:49:55;1.53;70.95
69281;SHT31;56392;51.082;17.080;2023-02-27T23:55:19;1.50;72.15
